createdAt,value
2022-11-27T00:00:35.826Z,95.09
2022-11-27T00:01:35.831Z,95.09
2022-11-27T00:02:40.390Z,95.09
2022-11-27T00:03:35.919Z,95.19
2022-11-27T00:04:35.778Z,95.19
2022-11-27T00:05:35.788Z,95.09
2022-11-27T00:06:35.766Z,94.98
2022-11-27T00:07:35.882Z,94.89
2022-11-27T00:08:35.756Z,94.89
2022-11-27T00:09:35.751Z,94.78
2022-11-27T00:10:35.721Z,94.93
2022-11-27T00:11:35.731Z,95.03
2022-11-27T00:12:35.692Z,95.34
2022-11-27T00:13:35.672Z,95.44
2022-11-27T00:14:35.699Z,95.54
2022-11-27T00:15:35.714Z,95.65
2022-11-27T00:16:35.679Z,95.65
2022-11-27T00:17:35.645Z,95.54
2022-11-27T00:18:35.649Z,95.44
2022-11-27T00:19:35.602Z,95.75
2022-11-27T00:20:35.661Z,95.96
2022-11-27T00:21:35.612Z,96.06
2022-11-27T00:22:35.586Z,95.86
2022-11-27T00:23:35.586Z,95.65
2022-11-27T00:24:35.581Z,95.44
2022-11-27T00:25:35.560Z,95.50
2022-11-27T00:26:38.072Z,95.19
2022-11-27T00:27:35.557Z,95.09
2022-11-27T00:28:35.537Z,94.98
2022-11-27T00:29:35.497Z,94.89
2022-11-27T00:30:35.494Z,94.78
2022-11-27T00:31:35.594Z,94.82
2022-11-27T00:32:35.506Z,95.14
2022-11-27T00:33:35.450Z,95.24
2022-11-27T00:34:35.471Z,95.24
2022-11-27T00:35:35.460Z,95.24
2022-11-27T00:36:46.590Z,95.24
2022-11-27T00:37:35.435Z,95.14
2022-11-27T00:38:38.717Z,95.03
2022-11-27T00:39:35.420Z,95.14
2022-11-27T00:40:35.396Z,95.24
2022-11-27T00:41:35.378Z,94.93
2022-11-27T00:42:35.365Z,95.24
2022-11-27T00:43:43.533Z,95.14
2022-11-27T00:44:35.367Z,95.14
2022-11-27T00:45:35.341Z,95.24
2022-11-27T00:46:35.453Z,95.24
2022-11-27T00:47:35.323Z,95.34
2022-11-27T00:48:35.328Z,95.34
2022-11-27T00:49:35.289Z,95.24
2022-11-27T00:50:35.294Z,95.14
2022-11-27T00:51:35.313Z,95.14
2022-11-27T00:52:35.257Z,95.24
2022-11-27T00:53:35.269Z,95.14
2022-11-27T00:54:35.220Z,95.44
2022-11-27T00:55:35.219Z,95.34
2022-11-27T00:56:41.813Z,95.44
2022-11-27T00:57:35.238Z,95.54
2022-11-27T00:58:35.195Z,95.75
2022-11-27T00:59:35.200Z,95.65
2022-11-27T01:00:35.180Z,95.65
2022-11-27T01:01:35.323Z,95.75
2022-11-27T01:02:35.228Z,95.75
2022-11-27T01:03:35.139Z,95.65
2022-11-27T01:04:35.119Z,95.65
2022-11-27T01:05:35.123Z,95.54
2022-11-27T01:06:35.122Z,95.44
2022-11-27T01:07:35.145Z,95.49
2022-11-27T01:08:35.115Z,95.75
2022-11-27T01:09:35.101Z,95.59
2022-11-27T01:10:35.052Z,95.59
2022-11-27T01:11:35.068Z,95.65
2022-11-27T01:12:35.597Z,95.65
2022-11-27T01:13:35.021Z,95.54
2022-11-27T01:14:35.000Z,95.65
2022-11-27T01:15:35.108Z,95.65
2022-11-27T01:16:35.064Z,95.59
2022-11-27T01:17:34.997Z,95.75
2022-11-27T01:18:34.962Z,95.75
2022-11-27T01:19:34.971Z,95.54
2022-11-27T01:20:34.933Z,95.34
2022-11-27T01:21:34.959Z,95.44
2022-11-27T01:22:34.966Z,95.34
2022-11-27T01:23:34.934Z,95.54
2022-11-27T01:24:34.888Z,95.44
2022-11-27T01:25:34.915Z,95.44
2022-11-27T01:26:34.866Z,95.24
2022-11-27T01:27:34.880Z,95.24
2022-11-27T01:28:34.891Z,95.19
2022-11-27T01:29:34.863Z,95.19
2022-11-27T01:30:34.854Z,94.98
2022-11-27T01:31:34.905Z,94.78
2022-11-27T01:32:34.818Z,94.57
2022-11-27T01:33:34.797Z,94.47
2022-11-27T01:34:34.832Z,94.47
2022-11-27T01:35:34.770Z,94.26
2022-11-27T01:36:34.775Z,94.16
2022-11-27T01:37:34.766Z,94.16
2022-11-27T01:38:34.749Z,94.06
2022-11-27T01:39:34.766Z,94.16
2022-11-27T01:40:34.746Z,94.16
2022-11-27T01:41:34.752Z,94.06
2022-11-27T01:42:34.720Z,94.26
2022-11-27T01:43:34.696Z,94.26
2022-11-27T01:44:34.692Z,93.95
2022-11-27T01:45:34.664Z,93.95
2022-11-27T01:46:41.642Z,94.01
2022-11-27T01:47:34.633Z,93.80
2022-11-27T01:48:34.634Z,93.70
2022-11-27T01:49:34.625Z,93.80
2022-11-27T01:50:34.645Z,93.60
2022-11-27T01:51:34.600Z,93.60
2022-11-27T01:52:34.589Z,93.70
2022-11-27T01:53:34.873Z,93.70
2022-11-27T01:54:34.564Z,93.70
2022-11-27T01:55:34.590Z,93.70
2022-11-27T01:56:34.572Z,93.80
2022-11-27T01:57:34.524Z,93.60
2022-11-27T01:58:34.579Z,93.70
2022-11-27T01:59:34.500Z,93.60
2022-11-27T02:00:34.521Z,93.60
2022-11-27T02:01:34.531Z,93.60
2022-11-27T02:02:34.572Z,93.64
2022-11-27T02:03:34.480Z,93.85
2022-11-27T02:04:34.455Z,93.91
2022-11-27T02:05:34.445Z,93.80
2022-11-27T02:06:34.455Z,93.80
2022-11-27T02:07:34.520Z,93.80
2022-11-27T02:08:34.441Z,93.70
2022-11-27T02:09:34.391Z,93.70
2022-11-27T02:10:34.415Z,93.74
2022-11-27T02:11:34.375Z,93.85
2022-11-27T02:12:34.396Z,93.95
2022-11-27T02:13:34.365Z,93.85
2022-11-27T02:14:34.345Z,93.95
2022-11-27T02:15:34.364Z,94.06
2022-11-27T02:16:34.408Z,94.06
2022-11-27T02:17:34.342Z,93.95
2022-11-27T02:18:34.309Z,94.16
2022-11-27T02:19:34.288Z,94.26
2022-11-27T02:20:34.298Z,94.47
2022-11-27T02:21:34.271Z,94.47
2022-11-27T02:22:34.255Z,94.16
2022-11-27T02:23:34.266Z,94.16
2022-11-27T02:24:34.282Z,94.16
2022-11-27T02:25:34.223Z,94.26
2022-11-27T02:26:34.223Z,94.26
2022-11-27T02:27:34.231Z,94.47
2022-11-27T02:28:34.203Z,94.47
2022-11-27T02:29:34.201Z,94.57
2022-11-27T02:30:34.181Z,94.37
2022-11-27T02:31:34.251Z,94.26
2022-11-27T02:32:34.163Z,94.37
2022-11-27T02:33:34.164Z,94.47
2022-11-27T02:34:34.125Z,94.47
2022-11-27T02:35:34.159Z,94.47
2022-11-27T02:36:34.128Z,94.47
2022-11-27T02:37:34.108Z,94.47
2022-11-27T02:38:34.079Z,94.37
2022-11-27T02:39:34.067Z,94.47
2022-11-27T02:40:34.060Z,94.47
2022-11-27T02:41:34.063Z,94.37
2022-11-27T02:42:34.029Z,94.41
2022-11-27T02:43:34.049Z,94.57
2022-11-27T02:44:34.026Z,94.57
2022-11-27T02:45:34.045Z,94.47
2022-11-27T02:46:34.081Z,94.26
2022-11-27T02:47:34.051Z,94.26
2022-11-27T02:48:33.970Z,94.26
2022-11-27T02:49:33.970Z,94.16
2022-11-27T02:50:33.963Z,94.16
2022-11-27T02:51:33.956Z,94.16
2022-11-27T02:52:33.940Z,94.16
2022-11-27T02:53:33.902Z,94.26
2022-11-27T02:54:33.920Z,94.26
2022-11-27T02:55:33.923Z,94.16
2022-11-27T02:56:33.913Z,94.06
2022-11-27T02:57:33.867Z,93.95
2022-11-27T02:58:33.874Z,94.10
2022-11-27T02:59:33.865Z,94.20
2022-11-27T03:00:33.836Z,94.20
2022-11-27T03:01:33.906Z,94.51
2022-11-27T03:02:33.892Z,94.62
2022-11-27T03:03:33.809Z,94.72
2022-11-27T03:04:33.796Z,94.62
2022-11-27T03:05:33.788Z,94.41
2022-11-27T03:06:33.768Z,94.20
2022-11-27T03:07:33.838Z,94.10
2022-11-27T03:08:33.767Z,94.31
2022-11-27T03:09:33.770Z,94.20
2022-11-27T03:10:33.746Z,94.31
2022-11-27T03:11:33.751Z,94.31
2022-11-27T03:12:33.719Z,94.20
2022-11-27T03:13:33.733Z,94.45
2022-11-27T03:14:33.696Z,94.76
2022-11-27T03:15:33.677Z,94.76
2022-11-27T03:16:33.698Z,94.76
2022-11-27T03:17:33.651Z,94.97
2022-11-27T03:18:33.664Z,95.07
2022-11-27T03:19:33.649Z,94.87
2022-11-27T03:20:33.625Z,94.97
2022-11-27T03:21:33.599Z,94.97
2022-11-27T03:22:33.757Z,94.87
2022-11-27T03:23:33.585Z,94.87
2022-11-27T03:24:33.589Z,94.87
2022-11-27T03:25:33.612Z,94.97
2022-11-27T03:26:33.614Z,94.87
2022-11-27T03:27:33.559Z,94.97
2022-11-27T03:28:33.525Z,95.07
2022-11-27T03:29:33.579Z,95.18
2022-11-27T03:30:33.503Z,95.18
2022-11-27T03:31:33.541Z,95.18
2022-11-27T03:32:33.506Z,95.18
2022-11-27T03:33:33.468Z,94.97
2022-11-27T03:34:33.468Z,95.07
2022-11-27T03:35:33.466Z,94.87
2022-11-27T03:36:33.448Z,94.97
2022-11-27T03:37:33.431Z,95.18
2022-11-27T03:38:33.401Z,95.18
2022-11-27T03:39:33.429Z,95.07
2022-11-27T03:40:33.411Z,94.87
2022-11-27T03:41:33.404Z,94.87
2022-11-27T03:42:33.382Z,94.97
2022-11-27T03:43:33.386Z,95.01
2022-11-27T03:44:33.377Z,95.12
2022-11-27T03:45:33.358Z,95.12
2022-11-27T03:46:33.399Z,95.12
2022-11-27T03:47:33.344Z,95.01
2022-11-27T03:48:33.327Z,95.01
2022-11-27T03:49:33.294Z,95.01
2022-11-27T03:50:33.311Z,95.12
2022-11-27T03:51:33.260Z,95.22
2022-11-27T03:52:33.281Z,95.22
2022-11-27T03:53:33.241Z,95.12
2022-11-27T03:54:33.240Z,95.22
2022-11-27T03:55:33.224Z,95.22
2022-11-27T03:56:33.237Z,95.12
2022-11-27T03:57:33.248Z,95.22
2022-11-27T03:58:33.209Z,95.12
2022-11-27T03:59:33.202Z,95.12
2022-11-27T04:00:33.169Z,95.22
2022-11-27T04:01:33.240Z,95.32
2022-11-27T04:02:33.152Z,95.22
2022-11-27T04:03:33.209Z,95.12
2022-11-27T04:04:33.160Z,95.01
2022-11-27T04:05:33.142Z,95.01
2022-11-27T04:06:33.111Z,95.01
2022-11-27T04:07:33.176Z,95.01
2022-11-27T04:08:33.083Z,95.12
2022-11-27T04:09:33.295Z,94.97
2022-11-27T04:10:33.069Z,94.97
2022-11-27T04:11:33.064Z,95.01
2022-11-27T04:12:33.055Z,94.97
2022-11-27T04:13:33.032Z,95.01
2022-11-27T04:14:33.067Z,95.07
2022-11-27T04:15:33.014Z,95.07
2022-11-27T04:16:33.082Z,94.87
2022-11-27T04:17:33.000Z,94.76
2022-11-27T04:18:32.966Z,94.76
2022-11-27T04:19:32.992Z,94.66
2022-11-27T04:20:32.952Z,94.56
2022-11-27T04:21:32.949Z,94.41
2022-11-27T04:22:32.944Z,94.20
2022-11-27T04:23:32.950Z,94.10
2022-11-27T04:24:32.919Z,94.10
2022-11-27T04:25:32.919Z,94.10
2022-11-27T04:26:32.907Z,93.99
2022-11-27T04:27:32.871Z,93.99
2022-11-27T04:28:32.919Z,93.89
2022-11-27T04:29:32.867Z,93.79
2022-11-27T04:30:32.849Z,93.68
2022-11-27T04:31:32.911Z,93.68
2022-11-27T04:32:32.813Z,93.68
2022-11-27T04:33:32.855Z,93.68
2022-11-27T04:34:32.803Z,93.79
2022-11-27T04:35:32.787Z,93.68
2022-11-27T04:36:38.802Z,93.68
2022-11-27T04:37:32.789Z,93.54
2022-11-27T04:38:32.789Z,93.43
2022-11-27T04:39:32.749Z,93.33
2022-11-27T04:40:32.763Z,93.43
2022-11-27T04:41:32.723Z,93.33
2022-11-27T04:42:32.753Z,93.33
2022-11-27T04:43:32.736Z,93.33
2022-11-27T04:44:32.755Z,93.12
2022-11-27T04:45:32.701Z,93.02
2022-11-27T04:46:32.732Z,93.02
2022-11-27T04:47:32.660Z,93.02
2022-11-27T04:48:32.639Z,93.02
2022-11-27T04:49:32.622Z,93.02
2022-11-27T04:50:32.635Z,92.91
2022-11-27T04:51:32.658Z,92.71
2022-11-27T04:52:32.631Z,92.71
2022-11-27T04:53:32.599Z,92.71
2022-11-27T04:54:32.598Z,92.61
2022-11-27T04:55:32.570Z,92.61
2022-11-27T04:56:32.563Z,92.50
2022-11-27T04:57:32.550Z,92.61
2022-11-27T04:58:32.539Z,92.61
2022-11-27T04:59:32.604Z,92.57
2022-11-27T05:00:32.537Z,92.57
2022-11-27T05:01:32.548Z,92.57
2022-11-27T05:02:32.506Z,92.71
2022-11-27T05:03:32.510Z,92.91
2022-11-27T05:04:32.488Z,92.91
2022-11-27T05:05:32.458Z,93.02
2022-11-27T05:06:32.470Z,92.91
2022-11-27T05:07:32.503Z,93.02
2022-11-27T05:08:32.406Z,93.02
2022-11-27T05:09:32.445Z,93.12
2022-11-27T05:10:32.420Z,93.23
2022-11-27T05:11:32.405Z,93.23
2022-11-27T05:12:32.504Z,93.33
2022-11-27T05:13:32.384Z,93.43
2022-11-27T05:14:32.366Z,93.54
2022-11-27T05:15:32.405Z,93.64
2022-11-27T05:16:32.442Z,93.74
2022-11-27T05:17:32.358Z,93.74
2022-11-27T05:18:32.316Z,93.64
2022-11-27T05:19:32.351Z,93.74
2022-11-27T05:20:32.320Z,93.54
2022-11-27T05:21:32.295Z,93.49
2022-11-27T05:22:32.290Z,93.39
2022-11-27T05:23:32.262Z,93.18
2022-11-27T05:24:32.262Z,92.97
2022-11-27T05:25:32.264Z,92.87
2022-11-27T05:26:32.267Z,92.87
2022-11-27T05:27:32.220Z,92.77
2022-11-27T05:28:32.251Z,92.87
2022-11-27T05:29:32.188Z,92.97
2022-11-27T05:30:32.268Z,93.18
2022-11-27T05:31:32.195Z,93.29
2022-11-27T05:32:32.178Z,93.39
2022-11-27T05:33:32.212Z,93.49
2022-11-27T05:34:32.137Z,93.49
2022-11-27T05:35:32.154Z,93.60
2022-11-27T05:36:32.147Z,93.70
2022-11-27T05:37:32.106Z,93.80
2022-11-27T05:38:32.093Z,93.80
2022-11-27T05:39:32.088Z,93.91
2022-11-27T05:40:32.070Z,93.91
2022-11-27T05:41:32.056Z,93.80
2022-11-27T05:42:32.135Z,93.70
2022-11-27T05:43:32.038Z,93.70
2022-11-27T05:44:32.051Z,93.70
2022-11-27T05:45:32.052Z,93.70
2022-11-27T05:46:38.646Z,93.39
2022-11-27T05:47:31.988Z,93.24
2022-11-27T05:48:31.988Z,93.39
2022-11-27T05:49:31.994Z,93.49
2022-11-27T05:50:31.983Z,93.39
2022-11-27T05:51:31.967Z,93.35
2022-11-27T05:52:31.964Z,93.35
2022-11-27T05:53:31.913Z,93.35
2022-11-27T05:54:31.989Z,93.35
2022-11-27T05:55:31.935Z,93.35
2022-11-27T05:56:31.913Z,93.35
2022-11-27T05:57:31.869Z,93.35
2022-11-27T05:58:31.878Z,93.35
2022-11-27T05:59:31.937Z,93.35
2022-11-27T06:00:31.880Z,93.45
2022-11-27T06:01:31.963Z,93.45
2022-11-27T06:02:31.966Z,93.55
2022-11-27T06:03:31.911Z,93.45
2022-11-27T06:04:31.822Z,93.55
2022-11-27T06:05:31.784Z,93.45
2022-11-27T06:06:31.832Z,93.45
2022-11-27T06:07:31.888Z,93.55
2022-11-27T06:08:31.762Z,93.66
2022-11-27T06:09:31.769Z,93.66
2022-11-27T06:10:31.807Z,93.76
2022-11-27T06:11:31.791Z,93.87
2022-11-27T06:12:31.711Z,93.87
2022-11-27T06:13:31.713Z,93.97
2022-11-27T06:14:31.714Z,93.97
2022-11-27T06:15:31.689Z,93.97
2022-11-27T06:16:31.712Z,94.07
2022-11-27T06:17:31.681Z,94.18
2022-11-27T06:18:31.665Z,94.18
2022-11-27T06:19:31.651Z,94.28
2022-11-27T06:20:31.654Z,94.28
2022-11-27T06:21:31.649Z,94.38
2022-11-27T06:22:31.612Z,94.38
2022-11-27T06:23:31.605Z,94.38
2022-11-27T06:24:31.582Z,94.38
2022-11-27T06:25:31.582Z,94.38
2022-11-27T06:26:31.554Z,94.48
2022-11-27T06:27:31.572Z,94.48
2022-11-27T06:28:31.552Z,94.38
2022-11-27T06:29:31.640Z,94.34
2022-11-27T06:30:31.527Z,94.23
2022-11-27T06:31:31.540Z,94.23
2022-11-27T06:32:31.553Z,94.23
2022-11-27T06:33:31.513Z,94.34
2022-11-27T06:34:31.513Z,94.34
2022-11-27T06:35:31.468Z,94.34
2022-11-27T06:36:38.067Z,94.23
2022-11-27T06:37:31.670Z,94.34
2022-11-27T06:38:31.438Z,94.13
2022-11-27T06:39:31.446Z,94.03
2022-11-27T06:40:31.413Z,94.03
2022-11-27T06:41:31.404Z,94.03
2022-11-27T06:42:31.408Z,93.93
2022-11-27T06:43:31.373Z,93.93
2022-11-27T06:44:31.351Z,93.82
2022-11-27T06:45:31.433Z,93.78
2022-11-27T06:46:31.360Z,93.68
2022-11-27T06:47:31.328Z,93.68
2022-11-27T06:48:31.372Z,93.57
2022-11-27T06:49:31.318Z,93.57
2022-11-27T06:50:31.289Z,93.47
2022-11-27T06:51:31.302Z,93.47
2022-11-27T06:52:33.648Z,93.47
2022-11-27T06:53:31.265Z,92.95
2022-11-27T06:54:31.237Z,92.85
2022-11-27T06:55:31.254Z,92.60
2022-11-27T06:56:31.232Z,92.60
2022-11-27T06:57:31.224Z,92.50
2022-11-27T06:58:31.493Z,92.40
2022-11-27T06:59:31.190Z,92.40
2022-11-27T07:00:31.194Z,92.29
2022-11-27T07:01:31.300Z,92.19
2022-11-27T07:02:31.211Z,92.08
2022-11-27T07:03:31.214Z,91.98
2022-11-27T07:04:31.146Z,91.88
2022-11-27T07:05:31.130Z,91.63
2022-11-27T07:06:31.130Z,91.42
2022-11-27T07:07:31.128Z,91.32
2022-11-27T07:08:31.102Z,91.32
2022-11-27T07:09:31.089Z,91.22
2022-11-27T07:10:31.091Z,91.22
2022-11-27T07:11:31.074Z,91.01
2022-11-27T07:12:31.058Z,90.91
2022-11-27T07:13:31.028Z,90.91
2022-11-27T07:14:31.057Z,91.01
2022-11-27T07:15:31.010Z,91.01
2022-11-27T07:16:31.081Z,91.01
2022-11-27T07:17:31.004Z,90.91
2022-11-27T07:18:30.980Z,90.80
2022-11-27T07:19:31.005Z,90.70
2022-11-27T07:20:30.980Z,90.59
2022-11-27T07:21:30.958Z,90.70
2022-11-27T07:22:30.954Z,90.55
2022-11-27T07:23:30.928Z,90.45
2022-11-27T07:24:30.922Z,90.45
2022-11-27T07:25:30.973Z,90.66
2022-11-27T07:26:30.894Z,90.66
2022-11-27T07:27:30.934Z,90.76
2022-11-27T07:28:30.870Z,90.66
2022-11-27T07:29:30.859Z,90.66
2022-11-27T07:30:30.849Z,90.35
2022-11-27T07:31:30.878Z,90.45
2022-11-27T07:32:30.824Z,90.35
2022-11-27T07:33:30.828Z,90.25
2022-11-27T07:34:30.882Z,90.04
2022-11-27T07:35:30.812Z,90.04
2022-11-27T07:36:30.793Z,89.94
2022-11-27T07:37:30.767Z,89.83
2022-11-27T07:38:30.751Z,90.14
2022-11-27T07:40:00.167Z,90.14
2022-11-27T07:40:30.760Z,90.04
2022-11-27T07:41:33.871Z,89.94
2022-11-27T07:42:38.115Z,89.94
2022-11-27T07:43:30.737Z,89.69
2022-11-27T07:44:30.725Z,89.28
2022-11-27T07:45:30.700Z,89.28
2022-11-27T07:46:30.685Z,89.38
2022-11-27T07:47:30.677Z,89.17
2022-11-27T07:48:30.656Z,89.17
2022-11-27T07:49:30.658Z,89.17
2022-11-27T07:50:30.635Z,89.07
2022-11-27T07:51:30.620Z,89.07
2022-11-27T07:52:30.624Z,89.07
2022-11-27T07:53:30.615Z,89.07
2022-11-27T07:54:30.570Z,89.28
2022-11-27T07:55:30.606Z,89.48
2022-11-27T07:56:37.656Z,89.38
2022-11-27T07:57:30.564Z,89.28
2022-11-27T07:58:30.558Z,89.28
2022-11-27T07:59:30.541Z,89.48
2022-11-27T08:00:30.528Z,89.48
2022-11-27T08:01:30.608Z,89.38
2022-11-27T08:02:30.501Z,89.38
2022-11-27T08:03:30.487Z,89.28
2022-11-27T08:04:30.539Z,88.92
2022-11-27T08:05:30.539Z,89.23
2022-11-27T08:06:30.433Z,89.23
2022-11-27T08:07:30.550Z,89.13
2022-11-27T08:08:30.441Z,89.13
2022-11-27T08:09:30.430Z,88.82
2022-11-27T08:10:30.417Z,88.92
2022-11-27T08:11:30.437Z,88.72
2022-11-27T08:12:30.389Z,88.82
2022-11-27T08:13:30.423Z,88.72
2022-11-27T08:14:30.344Z,88.92
2022-11-27T08:15:30.345Z,89.13
2022-11-27T08:16:36.955Z,88.82
2022-11-27T08:17:30.353Z,88.82
2022-11-27T08:18:30.340Z,88.72
2022-11-27T08:19:30.327Z,88.26
2022-11-27T08:20:30.387Z,88.47
2022-11-27T08:21:30.276Z,88.26
2022-11-27T08:22:30.256Z,88.06
2022-11-27T08:23:30.273Z,87.96
2022-11-27T08:24:30.257Z,88.06
2022-11-27T08:25:30.256Z,87.85
2022-11-27T08:26:30.230Z,88.06
2022-11-27T08:27:30.240Z,88.06
2022-11-27T08:28:30.202Z,87.85
2022-11-27T08:29:33.912Z,87.92
2022-11-27T08:30:30.172Z,88.12
2022-11-27T08:31:30.217Z,88.43
2022-11-27T08:32:30.146Z,88.64
2022-11-27T08:33:30.182Z,88.74
2022-11-27T08:34:30.126Z,88.64
2022-11-27T08:35:30.156Z,88.84
2022-11-27T08:36:36.680Z,88.64
2022-11-27T08:37:30.133Z,88.84
2022-11-27T08:38:30.126Z,88.53
2022-11-27T08:39:30.076Z,88.59
2022-11-27T08:40:30.088Z,87.98
2022-11-27T08:41:30.058Z,87.87
2022-11-27T08:42:30.041Z,88.29
2022-11-27T08:43:30.052Z,87.67
2022-11-27T08:44:30.030Z,87.57
2022-11-27T08:45:30.099Z,87.77
2022-11-27T08:46:30.042Z,87.57
2022-11-27T08:47:30.005Z,87.46
2022-11-27T08:48:29.971Z,87.57
2022-11-27T08:49:29.996Z,87.67
2022-11-27T08:50:29.963Z,87.15
2022-11-27T08:51:29.987Z,86.74
2022-11-27T08:52:29.953Z,86.60
2022-11-27T08:53:29.946Z,86.60
2022-11-27T08:54:29.915Z,86.08
2022-11-27T08:55:29.934Z,86.91
2022-11-27T08:56:36.411Z,86.40
2022-11-27T08:57:29.883Z,86.40
2022-11-27T08:58:29.885Z,86.70
2022-11-27T08:59:29.853Z,87.32
2022-11-27T09:00:29.873Z,86.91
2022-11-27T09:01:29.905Z,86.91
2022-11-27T09:02:29.833Z,86.80
2022-11-27T09:03:29.810Z,86.50
2022-11-27T09:04:29.885Z,85.98
2022-11-27T09:05:29.809Z,86.19
2022-11-27T09:06:29.776Z,86.29
2022-11-27T09:07:29.870Z,85.78
2022-11-27T09:08:29.788Z,85.98
2022-11-27T09:09:29.776Z,85.98
2022-11-27T09:10:29.738Z,86.08
2022-11-27T09:11:29.744Z,86.05
2022-11-27T09:12:29.737Z,85.84
2022-11-27T09:13:29.721Z,85.84
2022-11-27T09:14:29.730Z,85.94
2022-11-27T09:15:29.670Z,85.84
2022-11-27T09:16:29.782Z,85.43
2022-11-27T09:17:29.692Z,85.43
2022-11-27T09:18:29.680Z,85.43
2022-11-27T09:19:29.668Z,85.43
2022-11-27T09:20:29.660Z,85.63
2022-11-27T09:21:30.137Z,85.53
2022-11-27T09:22:29.630Z,86.21
2022-11-27T09:23:29.613Z,85.49
2022-11-27T09:24:29.614Z,85.49
2022-11-27T09:25:29.607Z,84.67
2022-11-27T09:26:29.579Z,84.67
2022-11-27T09:27:29.568Z,84.47
2022-11-27T09:28:31.528Z,84.01
2022-11-27T09:29:29.530Z,84.63
2022-11-27T09:30:29.543Z,83.91
2022-11-27T09:31:29.663Z,82.57
2022-11-27T09:32:29.528Z,82.57
2022-11-27T09:33:29.520Z,83.81
2022-11-27T09:34:33.375Z,84.22
2022-11-27T09:35:29.542Z,84.01
2022-11-27T09:36:29.444Z,83.40
2022-11-27T09:37:29.458Z,81.96
2022-11-27T09:38:29.519Z,82.17
2022-11-27T09:39:29.432Z,82.47
2022-11-27T09:40:29.413Z,83.19
2022-11-27T09:41:29.409Z,82.47
2022-11-27T09:42:29.387Z,83.15
2022-11-27T09:43:29.402Z,82.95
2022-11-27T09:44:29.371Z,81.55
2022-11-27T09:45:29.471Z,81.65
2022-11-27T09:46:29.368Z,81.96
2022-11-27T09:47:29.344Z,81.20
2022-11-27T09:48:29.381Z,81.30
2022-11-27T09:49:29.333Z,81.92
2022-11-27T09:50:29.301Z,81.62
2022-11-27T09:51:29.307Z,81.41
2022-11-27T09:52:29.275Z,81.00
2022-11-27T09:53:29.259Z,80.79
2022-11-27T09:54:29.274Z,80.79
2022-11-27T09:55:29.243Z,81.00
2022-11-27T09:56:29.262Z,80.55
2022-11-27T09:57:29.240Z,79.93
2022-11-27T09:58:29.204Z,79.52
2022-11-27T09:59:29.228Z,79.32
2022-11-27T10:00:29.196Z,79.18
2022-11-27T10:01:38.222Z,78.77
2022-11-27T10:02:29.380Z,78.05
2022-11-27T10:03:29.201Z,78.22
2022-11-27T10:04:39.877Z,77.50
2022-11-27T10:05:29.120Z,76.40
2022-11-27T10:06:29.184Z,74.84
2022-11-27T10:07:29.163Z,74.60
2022-11-27T10:08:29.130Z,73.94
2022-11-27T10:09:29.155Z,72.31
2022-11-27T10:10:29.080Z,71.46
2022-11-27T10:11:29.063Z,71.56
2022-11-27T10:12:29.047Z,70.81
2022-11-27T10:13:29.023Z,70.68
2022-11-27T10:14:29.042Z,70.03
2022-11-27T10:15:29.022Z,69.96
2022-11-27T10:16:38.015Z,69.89
2022-11-27T10:17:29.019Z,70.13
2022-11-27T10:18:29.023Z,71.53
2022-11-27T10:19:28.976Z,70.06
2022-11-27T10:20:28.963Z,69.93
2022-11-27T10:21:28.960Z,69.73
2022-11-27T10:22:28.964Z,69.38
2022-11-27T10:23:28.932Z,68.23
2022-11-27T10:24:28.926Z,67.69
2022-11-27T10:25:28.926Z,66.30
2022-11-27T10:26:28.933Z,64.87
2022-11-27T10:27:28.865Z,65.25
2022-11-27T10:28:28.905Z,64.00
2022-11-27T10:29:28.860Z,63.87
2022-11-27T10:30:28.841Z,62.52
2022-11-27T10:31:28.901Z,61.60
2022-11-27T10:33:28.814Z,60.74
2022-11-27T10:34:28.823Z,60.40
2022-11-27T10:35:28.820Z,59.48
2022-11-27T10:36:35.315Z,59.36
2022-11-27T10:37:28.767Z,59.18
2022-11-27T10:38:28.799Z,58.88
2022-11-27T10:39:28.726Z,60.13
2022-11-27T10:40:28.806Z,60.25
2022-11-27T10:41:48.109Z,60.99
2022-11-27T10:42:28.739Z,61.20
2022-11-27T10:43:28.741Z,60.79
2022-11-27T10:44:28.692Z,61.36
2022-11-27T10:45:28.735Z,62.51
2022-11-27T10:46:28.724Z,63.15
2022-11-27T10:47:33.508Z,63.76
2022-11-27T10:48:28.749Z,64.20
2022-11-27T10:49:28.726Z,64.20
2022-11-27T10:50:28.658Z,64.53
2022-11-27T10:51:28.622Z,64.84
2022-11-27T10:52:28.587Z,65.37
2022-11-27T10:53:28.579Z,65.58
2022-11-27T10:54:28.569Z,66.22
2022-11-27T10:55:28.560Z,66.63
2022-11-27T10:56:28.555Z,66.53
2022-11-27T10:57:28.521Z,66.53
2022-11-27T10:58:28.547Z,66.86
2022-11-27T10:59:32.981Z,66.77
2022-11-27T11:00:28.550Z,66.90
2022-11-27T11:01:28.569Z,67.00
2022-11-27T11:02:28.541Z,67.27
2022-11-27T11:03:28.472Z,66.77
2022-11-27T11:04:43.782Z,66.86
2022-11-27T11:05:41.333Z,66.53
2022-11-27T11:06:28.635Z,66.56
2022-11-27T11:07:28.504Z,67.07
2022-11-27T11:08:28.416Z,67.07
2022-11-27T11:09:28.417Z,66.97
2022-11-27T11:10:28.386Z,66.97
2022-11-27T11:11:28.465Z,67.38
2022-11-27T11:12:28.372Z,67.14
2022-11-27T11:13:28.352Z,66.80
2022-11-27T11:14:28.364Z,66.50
2022-11-27T11:15:28.347Z,66.19
2022-11-27T11:16:33.288Z,66.19
2022-11-27T11:17:28.482Z,66.09
2022-11-27T11:18:28.286Z,65.68
2022-11-27T11:19:28.293Z,65.78
2022-11-27T11:20:28.266Z,65.68
2022-11-27T11:21:28.261Z,65.55
2022-11-27T11:22:28.269Z,64.63
2022-11-27T11:23:28.272Z,64.63
2022-11-27T11:24:28.225Z,64.73
2022-11-27T11:25:28.238Z,65.07
2022-11-27T11:26:28.229Z,64.97
2022-11-27T11:27:28.194Z,65.17
2022-11-27T11:28:28.183Z,65.28
2022-11-27T11:29:28.212Z,65.17
2022-11-27T11:30:28.192Z,66.02
2022-11-27T11:31:28.179Z,66.83
2022-11-27T11:32:28.173Z,66.22
2022-11-27T11:33:28.138Z,66.12
2022-11-27T11:34:28.160Z,66.33
2022-11-27T11:35:28.922Z,65.61
2022-11-27T11:36:28.110Z,65.78
2022-11-27T11:37:28.083Z,64.94
2022-11-27T11:38:28.093Z,63.89
2022-11-27T11:39:28.085Z,63.24
2022-11-27T11:40:28.071Z,62.94
2022-11-27T11:41:28.034Z,63.24
2022-11-27T11:42:28.068Z,63.24
2022-11-27T11:43:28.010Z,63.24
2022-11-27T11:44:28.032Z,63.35
2022-11-27T11:45:32.295Z,63.35
2022-11-27T11:46:28.085Z,62.81
2022-11-27T11:47:27.985Z,62.63
2022-11-27T11:48:28.010Z,63.58
2022-11-27T11:49:27.967Z,63.58
2022-11-27T11:50:27.955Z,63.79
2022-11-27T11:51:29.443Z,64.22
2022-11-27T11:52:27.926Z,64.53
2022-11-27T11:53:27.910Z,64.66
2022-11-27T11:54:27.919Z,64.87
2022-11-27T11:55:27.874Z,64.87
2022-11-27T11:56:34.425Z,65.20
2022-11-27T11:57:27.882Z,65.31
2022-11-27T11:58:27.850Z,65.81
2022-11-27T11:59:27.831Z,66.05
2022-11-27T12:00:30.934Z,66.25
2022-11-27T12:01:27.953Z,66.66
2022-11-27T12:02:27.853Z,66.25
2022-11-27T12:03:27.792Z,66.39
2022-11-27T12:04:27.882Z,66.59
2022-11-27T12:05:27.806Z,67.00
2022-11-27T12:06:27.765Z,67.00
2022-11-27T12:07:27.754Z,67.21
2022-11-27T12:08:27.734Z,67.21
2022-11-27T12:09:27.710Z,67.00
2022-11-27T12:10:27.729Z,66.90
2022-11-27T12:11:27.947Z,67.21
2022-11-27T12:12:27.707Z,67.00
2022-11-27T12:13:30.357Z,67.54
2022-11-27T12:14:27.698Z,66.62
2022-11-27T12:15:27.666Z,67.34
2022-11-27T12:16:27.782Z,67.65
2022-11-27T12:17:27.646Z,67.54
2022-11-27T12:18:27.620Z,67.44
2022-11-27T12:19:27.622Z,67.13
2022-11-27T12:20:27.618Z,67.68
2022-11-27T12:21:27.608Z,67.78
2022-11-27T12:22:27.596Z,68.26
2022-11-27T12:23:27.598Z,67.75
2022-11-27T12:24:27.573Z,68.26
2022-11-27T12:25:27.539Z,67.65
2022-11-27T12:26:27.560Z,67.34
2022-11-27T12:27:27.520Z,67.13
2022-11-27T12:28:27.547Z,66.83
2022-11-27T12:29:27.519Z,67.34
2022-11-27T12:30:27.477Z,67.27
2022-11-27T12:31:27.546Z,67.57
2022-11-27T12:32:27.462Z,67.88
2022-11-27T12:33:27.472Z,67.75
2022-11-27T12:34:27.451Z,67.44
2022-11-27T12:35:27.447Z,67.44
2022-11-27T12:36:27.423Z,67.44
2022-11-27T12:37:27.422Z,67.03
2022-11-27T12:38:27.385Z,67.47
2022-11-27T12:39:27.405Z,67.27
2022-11-27T12:40:27.393Z,67.47
2022-11-27T12:41:27.379Z,67.07
2022-11-27T12:42:27.371Z,67.57
2022-11-27T12:43:27.349Z,67.07
2022-11-27T12:44:27.389Z,67.07
2022-11-27T12:45:27.406Z,66.96
2022-11-27T12:46:27.352Z,67.07
2022-11-27T12:47:27.301Z,66.93
2022-11-27T12:48:27.292Z,67.07
2022-11-27T12:49:27.272Z,67.34
2022-11-27T12:50:27.248Z,66.66
2022-11-27T12:51:27.259Z,66.35
2022-11-27T12:52:27.251Z,67.07
2022-11-27T12:53:27.223Z,67.27